Stations météo

réclame
Mon MeteoGroup
Vipiteno, Italie (16014): Température de l'air & dewpoint: 12.02.2019 19:00:00 - 18.02.2019 19:00:00 (CET)Vipiteno, Italie (16014): Vitesse du vent: 12.02.2019 19:00:00 - 18.02.2019 19:00:00 (CET)Vipiteno, Italie (16014): Direction du vent: 12.02.2019 19:00:00 - 18.02.2019 19:00:00 (CET)Vipiteno, Italie (16014): Quantités de précipitations: 12.02.2019 19:00:00 - 18.02.2019 19:00:00 (CET)
Date & Time tt [°C] td [°C] ff [km/h] ff [knt] dd rr [mm]
18.02.2019 19:00:00 - - - - - -
18.02.2019 18:00:00 - - - - - -
18.02.2019 17:00:00 - - - - - -
18.02.2019 16:00:00 - - - - - -
18.02.2019 15:00:00 - - - - - -
18.02.2019 14:00:00 - - - - - -
18.02.2019 13:00:00 - - - - - -
18.02.2019 12:00:00 - - - - - -
18.02.2019 11:00:00 - - - - - -
18.02.2019 10:00:00 - - - - - -
18.02.2019 09:00:00 - - - - - -
18.02.2019 08:00:00 - - - - - -
18.02.2019 07:00:00 - - - - - -
18.02.2019 06:00:00 - - - - - -
18.02.2019 05:00:00 - - - - - -
18.02.2019 04:00:00 - - - - - -
18.02.2019 03:00:00 - - - - - -
18.02.2019 02:00:00 - - - - - -
18.02.2019 01:00:00 - - - - - -
18.02.2019 00:00:00 - - - - - -
17.02.2019 23:00:00 - - - - - -
17.02.2019 22:00:00 - - - - - -
17.02.2019 21:00:00 - - - - - -
17.02.2019 20:00:00 - - - - - -
17.02.2019 19:00:00 - - - - - -
17.02.2019 18:00:00 - - - - - -
17.02.2019 17:00:00 - - - - - -
17.02.2019 16:00:00 - - - - - -
17.02.2019 15:00:00 - - - - - -
17.02.2019 14:00:00 - - - - - -
17.02.2019 13:00:00 - - - - - -
17.02.2019 12:00:00 - - - - - -
17.02.2019 11:00:00 - - - - - -
17.02.2019 10:00:00 - - - - - -
17.02.2019 09:00:00 - - - - - -
17.02.2019 08:00:00 - - - - - -
17.02.2019 07:00:00 - - - - - -
17.02.2019 06:00:00 - - - - - -
17.02.2019 05:00:00 - - - - - -
17.02.2019 04:00:00 - - - - - -
17.02.2019 03:00:00 - - - - - -
17.02.2019 02:00:00 - - - - - -
17.02.2019 01:00:00 - - - - - -
17.02.2019 00:00:00 - - - - - -
16.02.2019 23:00:00 -3,3 -7,0 2 1 WNW -
16.02.2019 22:00:00 -3,5 -7,2 0 0 N -
16.02.2019 21:00:00 -1,1 - 2 1 W -
16.02.2019 20:00:00 -0,4 -5,1 0 0 N -
16.02.2019 19:00:00 0,9 - - - - -
16.02.2019 18:00:00 - - - - - -
16.02.2019 17:00:00 - - - - - -
16.02.2019 16:00:00 6,7 -3,9 4 2 S -
16.02.2019 15:00:00 9,8 -4,7 2 1 SSW -
16.02.2019 14:00:00 8,8 -4,5 2 1 ESE -
16.02.2019 13:00:00 5,2 -2,7 0 0 N -
16.02.2019 12:00:00 2,5 -0,8 2 1 NNE -
16.02.2019 11:00:00 -0,7 -2,2 2 1 NNE -
16.02.2019 10:00:00 -4,6 -6,0 2 1 N -
16.02.2019 09:00:00 -8,4 -10,2 0 0 N -
16.02.2019 08:00:00 -9,8 -11,9 0 0 N -
16.02.2019 07:00:00 -9,4 -11,5 2 1 NW -
16.02.2019 06:00:00 -8,6 -10,7 0 0 N -
16.02.2019 05:00:00 -8,5 -10,8 2 1 SSE -
16.02.2019 04:00:00 -7,7 -10,0 2 1 NNW -
16.02.2019 03:00:00 -5,7 -8,0 0 0 N -
16.02.2019 02:00:00 -5,8 -8,6 4 2 WNW -
16.02.2019 01:00:00 -5,5 -8,9 0 0 N -
16.02.2019 00:00:00 -4,0 -7,8 2 1 W -
15.02.2019 23:00:00 -1,9 -6,0 0 0 N -
15.02.2019 22:00:00 -0,8 - 0 0 N -
15.02.2019 21:00:00 0,2 -5,3 4 2 NW -
15.02.2019 20:00:00 2,5 -4,1 4 2 N -
15.02.2019 19:00:00 4,8 -3,8 8 4 W -
15.02.2019 18:00:00 5,8 -3,9 9 5 NW -
15.02.2019 17:00:00 9,9 -6,2 13 7 W -
15.02.2019 16:00:00 11,5 -7,0 13 7 NNE -
15.02.2019 15:00:00 12,2 -7,9 13 7 WNW -
15.02.2019 14:00:00 11,3 -7,2 22 12 N -
15.02.2019 13:00:00 8,0 -4,3 5 3 W -
15.02.2019 12:00:00 4,5 -2,9 4 2 W -
15.02.2019 11:00:00 1,5 -3,3 4 2 NE -
15.02.2019 10:00:00 -3,3 -5,2 0 0 N -
15.02.2019 09:00:00 -6,7 -8,4 2 1 WNW -
15.02.2019 08:00:00 -8,4 -10,2 2 1 W -
15.02.2019 07:00:00 -8,3 -10,4 4 2 N -
15.02.2019 06:00:00 -7,8 -9,9 0 0 N -
15.02.2019 05:00:00 -6,5 -8,6 4 2 SE -
15.02.2019 04:00:00 -6,8 -9,2 2 1 SW -
15.02.2019 03:00:00 -5,8 -8,4 2 1 NW -
15.02.2019 02:00:00 -5,3 -8,4 2 1 S -
15.02.2019 01:00:00 -4,4 -7,9 2 1 W -
15.02.2019 00:00:00 -2,6 -6,7 2 1 NNE -
14.02.2019 23:00:00 -1,1 -5,9 4 2 SW -
14.02.2019 22:00:00 0,0 -5,3 4 2 W -
14.02.2019 21:00:00 2,5 -3,1 8 4 WNW -
14.02.2019 20:00:00 3,0 - - - - -
14.02.2019 19:00:00 3,7 -3,9 9 5 NW -
14.02.2019 18:00:00 4,8 -3,8 5 3 W -
14.02.2019 17:00:00 6,8 -3,3 9 5 WSW -
14.02.2019 16:00:00 8,8 -5,6 11 6 SSW -
14.02.2019 15:00:00 9,6 -5,3 13 7 NW -
14.02.2019 14:00:00 8,7 -5,0 15 8 WNW -
14.02.2019 13:00:00 6,6 -2,2 5 3 NNW -
14.02.2019 12:00:00 - - - - - -
14.02.2019 11:00:00 0,5 -1,6 2 1 N -
14.02.2019 10:00:00 -3,2 -4,6 2 1 NW -
14.02.2019 09:00:00 -6,5 -7,9 0 0 N -
14.02.2019 08:00:00 -8,7 -10,4 2 1 WSW -
14.02.2019 07:00:00 -8,0 -9,7 2 1 W 0,0
14.02.2019 06:00:00 -7,6 -9,3 2 1 SSE -
14.02.2019 05:00:00 -7,8 -9,8 2 1 NW -
14.02.2019 04:00:00 -6,7 -8,5 2 1 N -
14.02.2019 03:00:00 -6,3 -8,4 2 1 SW -
14.02.2019 02:00:00 -6,0 -8,5 0 0 N -
14.02.2019 01:00:00 -5,3 -8,4 0 0 N 0,0
14.02.2019 00:00:00 -4,2 -7,5 0 0 N -
13.02.2019 23:00:00 -3,4 -7,3 2 1 S -
13.02.2019 22:00:00 -1,5 -5,8 4 2 W -
13.02.2019 21:00:00 0,2 -4,3 0 0 N -
13.02.2019 20:00:00 1,7 -3,5 4 2 S -
13.02.2019 19:00:00 2,4 -3,2 9 5 WNW 0,0
13.02.2019 18:00:00 3,3 -2,7 15 8 W -
13.02.2019 17:00:00 5,4 -2,8 13 7 W -
13.02.2019 16:00:00 6,6 -2,9 16 9 NW -
13.02.2019 15:00:00 7,9 -3,4 13 7 NW -
13.02.2019 14:00:00 6,9 -4,0 8 4 NW -
13.02.2019 13:00:00 4,9 -4,5 5 3 N -
13.02.2019 12:00:00 2,7 -5,8 5 3 W -
13.02.2019 11:00:00 0,9 -6,5 5 3 W -
13.02.2019 10:00:00 -1,7 -7,5 11 6 W -
13.02.2019 09:00:00 -4,0 -7,7 5 3 WNW -
13.02.2019 08:00:00 -7,6 -11,3 4 2 WSW -
13.02.2019 07:00:00 -7,4 -11,1 4 2 WNW 0,0
13.02.2019 06:00:00 -7,8 -12,2 4 2 WSW -
13.02.2019 05:00:00 -6,3 -11,1 4 2 NW -
13.02.2019 04:00:00 -5,0 -9,9 5 3 W -
13.02.2019 03:00:00 -4,8 -9,9 11 6 W -
13.02.2019 02:00:00 -4,0 -9,5 13 7 W -
13.02.2019 01:00:00 -3,5 -9,0 15 8 W 0,0
13.02.2019 00:00:00 -1,6 -8,4 16 9 WSW -
12.02.2019 23:00:00 -0,4 -7,5 18 10 NNW -
12.02.2019 22:00:00 0,1 -8,2 16 9 WNW -
12.02.2019 21:00:00 0,2 -7,7 22 12 W -
12.02.2019 20:00:00 0,7 -8,1 21 11 NW -
12.02.2019 19:00:00 1,0 -8,4 22 12 WNW -

tt = Température de l'air
td = dewpoint
ff = Vitesse du vent
dd = Direction du vent
rr = Quantités de précipitations

stations d'obs. à proximité